KMUO/MUO METAR and TAF weather

Enter ICAO airport designator
Station Type Date Time Source
KMUO METAR 2018/12/10 11:58 UTC NOAA

KMUO 101158Z AUTO 14019KT 10SM BKN110 BKN140 M01/M01 A3024 RMK AO2 SLP263 T10081008 10002 21011 57009 $


Station Type Date Time Source
KMUO Decoded METAR 2018/12/10 11:58 UTC NOAA

Mountain Home Air Force Base, ID, United States (KMUO) 43-03N 115-52W
Dec 10, 2018 - 06:58 AM EST / 2018.12.10 1158 UTC
Wind: from the SE (140 degrees) at 22 MPH (19 KT):0
Visibility: 10 mile(s):0
Sky conditions: mostly cloudy
Temperature: 30.6 F (-0.8 C)
Windchill: 17 F (-8 C):1
Dew Point: 30.6 F (-0.8 C)
Relative Humidity: 100%
Pressure (altimeter): 30.24 in. Hg (1024 hPa)
Pressure tendency: 0.03 inches (0.9 hPa) lower than three hours ago
ob: KMUO 101158Z AUTO 14019KT 10SM BKN110 BKN140 M01/M01 A3024 RMK AO2 SLP263 T10081008 10002 21011 57009
cycle: 12

Station Type Date Time Source
KMUO TAF 2018/12/10 10:18 UTC NOAA

TAF KMUO 101008Z 1010/1116 13012G18KT 9999 BKN080 520007 QNH3025INS
BECMG 1014/1015 11012KT 9999 BKN050 QNH3023INS
BECMG 1020/1021 VRB06KT 4800 -SN OVC005 620109 QNH3022INS
TEMPO 1106/1112 0800 FG
BECMG 1112/1113 VRB06KT 4800 BR BKN005 620109 QNH3031INS TX02/1020Z TNM02/1015Z


Example: see airport list